createdAt,value
2023-02-28T00:01:31.725Z,99941.66
2023-02-28T00:03:59.105Z,99937.09
2023-02-28T00:06:25.943Z,99937.06
2023-02-28T00:08:53.040Z,99938.94
2023-02-28T00:11:19.919Z,99936.28
2023-02-28T00:13:47.620Z,99944.34
2023-02-28T00:16:20.429Z,99937.28
2023-02-28T00:18:48.664Z,99941.78
2023-02-28T00:21:16.300Z,99942.81
2023-02-28T00:23:43.580Z,99947.25
2023-02-28T00:26:10.356Z,99943.56
2023-02-28T00:28:37.477Z,99943.56
2023-02-28T00:31:04.447Z,99939.22
2023-02-28T00:33:31.571Z,99939.16
2023-02-28T00:36:09.165Z,99941.28
2023-02-28T00:38:36.335Z,99942.00
2023-02-28T00:41:06.174Z,99949.00
2023-02-28T00:43:34.464Z,99940.09
2023-02-28T00:46:01.593Z,99937.47
2023-02-28T00:48:28.738Z,99935.88
2023-02-28T00:50:55.572Z,99941.16
2023-02-28T00:53:23.087Z,99942.09
2023-02-28T00:55:50.904Z,99948.44
2023-02-28T00:58:18.027Z,99944.09
2023-02-28T01:00:48.958Z,99944.03
2023-02-28T01:03:17.901Z,99935.09
2023-02-28T01:05:44.787Z,99936.03
2023-02-28T01:08:12.047Z,99937.81
2023-02-28T01:10:39.345Z,99941.41
2023-02-28T01:13:06.414Z,99940.66
2023-02-28T01:15:33.525Z,99940.66
2023-02-28T01:18:00.593Z,99929.16
2023-02-28T01:20:27.366Z,99929.16
2023-02-28T01:22:54.419Z,99930.94
2023-02-28T01:25:21.155Z,99929.16
2023-02-28T01:27:48.280Z,99922.91
2023-02-28T01:30:15.512Z,99923.03
2023-02-28T01:32:42.584Z,99928.50
2023-02-28T01:35:09.555Z,99926.72
2023-02-28T01:37:36.983Z,99928.53
2023-02-28T01:40:04.277Z,99932.06
2023-02-28T01:42:31.339Z,99926.81
2023-02-28T01:45:04.330Z,99918.09
2023-02-28T01:47:34.322Z,99917.19
2023-02-28T01:50:02.174Z,99920.75
2023-02-28T01:52:29.436Z,99920.09
2023-02-28T01:54:56.929Z,99918.22
2023-02-28T01:57:26.463Z,99921.81
2023-02-28T01:59:59.521Z,99923.75
2023-02-28T02:02:26.736Z,99922.88
2023-02-28T02:05:00.000Z,99921.13
2023-02-28T02:07:27.115Z,99914.16
2023-02-28T02:10:17.039Z,99926.59
2023-02-28T02:13:15.155Z,99921.31
2023-02-28T02:15:47.741Z,99910.69
2023-02-28T02:18:27.064Z,99910.91
2023-02-28T02:20:56.740Z,99914.38
2023-02-28T02:23:42.520Z,99908.31
2023-02-28T02:26:28.146Z,99904.75
2023-02-28T02:29:08.279Z,99910.28
2023-02-28T02:31:43.294Z,99911.94
2023-02-28T02:34:13.290Z,99914.63
2023-02-28T02:36:41.462Z,99905.91
2023-02-28T02:39:17.822Z,99923.09
2023-02-28T02:41:53.151Z,99914.03
2023-02-28T02:44:28.505Z,99915.81
2023-02-28T02:47:22.007Z,99916.75
2023-02-28T02:49:53.400Z,99916.78
2023-02-28T02:52:23.351Z,99915.03
2023-02-28T02:54:50.893Z,99918.59
2023-02-28T02:57:41.550Z,99918.69
2023-02-28T03:00:09.520Z,99925.09
2023-02-28T03:02:37.399Z,99923.31
2023-02-28T03:05:07.720Z,99933.16
2023-02-28T03:07:34.435Z,99928.81
2023-02-28T03:10:02.315Z,99929.75
2023-02-28T03:12:35.096Z,99939.56
2023-02-28T03:15:09.233Z,99933.28
2023-02-28T03:17:35.921Z,99927.19
2023-02-28T03:20:17.940Z,99935.19
2023-02-28T03:22:50.671Z,99928.16
2023-02-28T03:25:32.658Z,99934.44
2023-02-28T03:28:02.286Z,99930.91
2023-02-28T03:30:55.717Z,99923.84
2023-02-28T03:33:43.159Z,99931.06
2023-02-28T03:36:14.087Z,99927.63
2023-02-28T03:38:40.844Z,99933.13
2023-02-28T03:41:13.272Z,99939.44
2023-02-28T03:43:41.418Z,99943.69
2023-02-28T03:46:11.475Z,99943.72
2023-02-28T03:48:45.257Z,99943.97
2023-02-28T03:51:15.257Z,99941.31
2023-02-28T03:54:03.882Z,99942.16
2023-02-28T03:56:34.144Z,99948.28
2023-02-28T03:59:21.683Z,99950.13
2023-02-28T04:01:49.608Z,99944.25
2023-02-28T04:04:17.137Z,99953.06
2023-02-28T04:06:44.362Z,99952.97
2023-02-28T04:11:46.977Z,99949.56
2023-02-28T04:14:13.786Z,99956.78
2023-02-28T04:16:41.928Z,99955.91
2023-02-28T04:19:09.544Z,99961.34
2023-02-28T04:21:40.085Z,99957.81
2023-02-28T04:24:08.453Z,99962.25
2023-02-28T04:26:37.037Z,99962.44
2023-02-28T04:29:05.249Z,99961.53
2023-02-28T04:31:33.056Z,99968.84
2023-02-28T04:34:00.275Z,99972.38
2023-02-28T04:36:27.594Z,99965.25
2023-02-28T04:38:54.566Z,99967.88
2023-02-28T04:41:21.938Z,99970.53
2023-02-28T04:43:48.662Z,99968.75
2023-02-28T04:46:16.359Z,99967.94
2023-02-28T04:48:44.720Z,99972.47
2023-02-28T04:51:13.149Z,99973.41
2023-02-28T04:53:40.743Z,99970.78
2023-02-28T04:56:08.282Z,99966.41
2023-02-28T04:58:35.420Z,99960.22
2023-02-28T05:01:18.221Z,99970.00
2023-02-28T05:03:45.064Z,99968.25
2023-02-28T05:06:12.651Z,99972.66
2023-02-28T05:08:39.787Z,99975.50
2023-02-28T05:11:26.771Z,99975.50
2023-02-28T05:13:54.716Z,99973.75
2023-02-28T05:16:21.995Z,99976.38
2023-02-28T05:18:48.908Z,99973.84
2023-02-28T05:21:25.585Z,99964.97
2023-02-28T05:23:53.483Z,99972.97
2023-02-28T05:26:20.760Z,99972.13
2023-02-28T05:28:47.516Z,99979.22
2023-02-28T05:31:14.850Z,99971.25
2023-02-28T05:33:41.630Z,99988.16
2023-02-28T05:36:09.013Z,99978.44
2023-02-28T05:38:37.830Z,99983.78
2023-02-28T05:41:12.451Z,99986.47
2023-02-28T05:43:39.246Z,99990.06
2023-02-28T05:46:07.449Z,99996.28
2023-02-28T05:48:35.429Z,99995.41
2023-02-28T05:51:03.547Z,100000.75
2023-02-28T05:53:30.436Z,99998.16
2023-02-28T05:55:57.521Z,100005.22
2023-02-28T05:58:26.467Z,100016.78
2023-02-28T06:00:53.527Z,100001.69
2023-02-28T06:03:20.275Z,100014.19
2023-02-28T06:05:47.116Z,100018.63
2023-02-28T06:08:14.181Z,100020.47
2023-02-28T06:10:40.944Z,100017.81
2023-02-28T06:13:08.011Z,100024.84
2023-02-28T06:15:34.932Z,100022.22
2023-02-28T06:18:02.018Z,100019.59
2023-02-28T06:20:31.631Z,100030.34
2023-02-28T06:23:01.563Z,100031.16
2023-02-28T06:25:28.448Z,100035.66
2023-02-28T06:27:55.744Z,100041.88
2023-02-28T06:30:26.251Z,100036.53
2023-02-28T06:32:54.048Z,100039.16
2023-02-28T06:35:20.985Z,100046.34
2023-02-28T06:37:48.252Z,100048.00
2023-02-28T06:40:15.281Z,100046.16
2023-02-28T06:42:42.502Z,100053.25
2023-02-28T06:45:10.665Z,100044.44
2023-02-28T06:47:39.123Z,100045.28
2023-02-28T06:50:06.507Z,100044.44
2023-02-28T06:52:33.828Z,100045.31
2023-02-28T06:55:04.001Z,100051.56
2023-02-28T06:57:34.596Z,100049.75
2023-02-28T07:00:01.975Z,100056.78
2023-02-28T07:02:29.124Z,100058.53
2023-02-28T07:04:56.659Z,100051.38
2023-02-28T07:07:23.765Z,100054.00
2023-02-28T07:09:50.504Z,100053.13
2023-02-28T07:12:17.610Z,100048.63
2023-02-28T07:14:44.335Z,100058.31
2023-02-28T07:17:13.018Z,100063.59
2023-02-28T07:19:40.338Z,100069.75
2023-02-28T07:22:07.821Z,100064.41
2023-02-28T07:24:34.662Z,100067.91
2023-02-28T07:27:02.517Z,100067.75
2023-02-28T07:29:29.569Z,100065.09
2023-02-28T07:31:57.040Z,100060.56
2023-02-28T07:34:23.905Z,100068.44
2023-02-28T07:36:54.598Z,100065.69
2023-02-28T07:39:22.281Z,100074.53
2023-02-28T07:41:49.447Z,100073.56
2023-02-28T07:44:16.205Z,100077.03
2023-02-28T07:46:43.354Z,100080.59
2023-02-28T07:49:10.160Z,100072.59
2023-02-28T07:51:37.397Z,100073.41
2023-02-28T07:54:04.404Z,100075.06
2023-02-28T07:56:31.802Z,100077.63
2023-02-28T07:58:58.840Z,100080.19
2023-02-28T08:01:26.206Z,100088.16
2023-02-28T08:03:53.070Z,100080.16
2023-02-28T08:06:22.605Z,100089.00
2023-02-28T08:08:49.626Z,100088.03
2023-02-28T08:11:17.252Z,100086.16
2023-02-28T08:13:45.117Z,100093.22
2023-02-28T08:16:15.382Z,100083.38
2023-02-28T08:18:42.291Z,100088.69
2023-02-28T08:21:10.125Z,100084.16
2023-02-28T08:23:37.105Z,100080.56
2023-02-28T08:26:04.759Z,100084.03
2023-02-28T08:28:31.590Z,100085.69
2023-02-28T08:30:58.724Z,100085.63
2023-02-28T08:33:25.702Z,100082.03
2023-02-28T08:35:56.547Z,100085.47
2023-02-28T08:38:23.883Z,100082.78
2023-02-28T08:40:50.978Z,100084.50
2023-02-28T08:43:17.882Z,100082.97
2023-02-28T08:45:45.047Z,100085.44
2023-02-28T08:48:11.862Z,100079.94
2023-02-28T08:50:38.909Z,100076.47
2023-02-28T08:53:05.678Z,100083.72
2023-02-28T08:55:32.728Z,100088.22
2023-02-28T08:57:59.568Z,100088.09
2023-02-28T09:00:26.647Z,100089.66
2023-02-28T09:02:53.541Z,100093.16
2023-02-28T09:05:20.634Z,100086.81
2023-02-28T09:07:47.379Z,100093.81
2023-02-28T09:10:14.516Z,100098.94
2023-02-28T09:12:41.256Z,100091.00
2023-02-28T09:15:08.891Z,100093.63
2023-02-28T09:17:35.700Z,100089.06
2023-02-28T09:20:02.729Z,100097.81
2023-02-28T09:22:29.571Z,100096.63
2023-02-28T09:24:56.632Z,100090.41
2023-02-28T09:27:23.367Z,100080.72
2023-02-28T09:29:50.562Z,100087.72
2023-02-28T09:32:19.099Z,100091.09
2023-02-28T09:34:46.319Z,100082.84
2023-02-28T09:37:13.065Z,100075.88
2023-02-28T09:39:40.112Z,100085.66
2023-02-28T09:42:08.724Z,100081.75
2023-02-28T09:44:41.273Z,100083.44
2023-02-28T09:47:16.170Z,100082.56
2023-02-28T09:49:46.735Z,100090.69
2023-02-28T09:52:19.010Z,100087.97
2023-02-28T09:54:46.208Z,100088.56
2023-02-28T09:57:36.046Z,100083.72
2023-02-28T10:00:19.400Z,100085.66
2023-02-28T10:02:54.968Z,100096.88
2023-02-28T10:05:24.695Z,100090.53
2023-02-28T10:07:59.968Z,100097.63
2023-02-28T10:10:39.444Z,100090.31
2023-02-28T10:13:14.299Z,100096.47
2023-02-28T10:15:41.587Z,100093.78
2023-02-28T10:18:12.863Z,100091.63
2023-02-28T10:20:41.219Z,100085.41
2023-02-28T10:23:13.352Z,100091.00
2023-02-28T10:25:40.600Z,100079.00
2023-02-28T10:28:14.789Z,100078.09
2023-02-28T10:30:49.850Z,100072.38
2023-02-28T10:33:23.656Z,100076.47
2023-02-28T10:35:51.506Z,100072.31
2023-02-28T10:38:21.284Z,100077.06
2023-02-28T10:40:48.438Z,100067.88
2023-02-28T10:43:19.247Z,100064.94
2023-02-28T10:46:09.536Z,100066.63
2023-02-28T10:48:45.082Z,100064.00
2023-02-28T10:51:13.512Z,100058.88
2023-02-28T10:54:00.994Z,100058.47
2023-02-28T10:56:28.968Z,100047.53
2023-02-28T10:59:31.416Z,100045.03
2023-02-28T11:01:58.677Z,100044.88
2023-02-28T11:04:30.212Z,100041.66
2023-02-28T11:07:01.804Z,100042.81
2023-02-28T11:09:32.806Z,100040.19
2023-02-28T11:11:59.913Z,100040.00
2023-02-28T11:14:28.676Z,100032.81
2023-02-28T11:16:55.967Z,100030.50
2023-02-28T11:19:39.092Z,100033.66
2023-02-28T11:22:06.161Z,100030.69
2023-02-28T11:24:36.534Z,100022.59
2023-02-28T11:27:03.862Z,100026.84
2023-02-28T11:29:32.311Z,100017.38
2023-02-28T11:32:05.456Z,100008.84
2023-02-28T11:34:32.892Z,100007.81
2023-02-28T11:37:00.246Z,100005.72
2023-02-28T11:39:27.733Z,100001.16
2023-02-28T11:42:33.363Z,99996.91
2023-02-28T11:45:13.001Z,99985.88
2023-02-28T11:47:55.090Z,99984.81
2023-02-28T11:50:48.080Z,99978.19
2023-02-28T11:53:24.231Z,99982.50
2023-02-28T11:55:57.077Z,99980.47
2023-02-28T11:58:42.183Z,99985.13
2023-02-28T12:01:25.249Z,99978.66
2023-02-28T12:04:18.474Z,99973.63
2023-02-28T12:07:10.300Z,99977.19
2023-02-28T12:09:42.775Z,99981.25
2023-02-28T12:12:32.854Z,99972.84
2023-02-28T12:15:33.941Z,99979.59
2023-02-28T12:18:11.216Z,99980.09
2023-02-28T12:20:47.580Z,99978.72
2023-02-28T12:23:23.316Z,99976.38
2023-02-28T12:25:53.609Z,99976.06
2023-02-28T12:28:23.164Z,99972.28
2023-02-28T12:31:01.217Z,99968.44
2023-02-28T12:33:33.694Z,99974.31
2023-02-28T12:36:02.137Z,99972.34
2023-02-28T12:38:48.325Z,99968.22
2023-02-28T12:42:11.045Z,99967.50
2023-02-28T12:44:46.144Z,99970.19
2023-02-28T12:47:17.752Z,99970.69
2023-02-28T12:49:49.111Z,99962.56
2023-02-28T12:52:18.808Z,99966.81
2023-02-28T12:54:56.144Z,99969.03
2023-02-28T12:57:33.219Z,99959.88
2023-02-28T13:00:06.292Z,99956.47
2023-02-28T13:03:04.520Z,99960.72
2023-02-28T13:05:46.283Z,99959.56
2023-02-28T13:08:31.995Z,99952.44
2023-02-28T13:10:58.761Z,99951.25
2023-02-28T13:13:32.905Z,99952.59
2023-02-28T13:16:03.524Z,99949.84
2023-02-28T13:18:41.177Z,99953.38
2023-02-28T13:21:29.949Z,99954.16
2023-02-28T13:23:59.914Z,99951.16
2023-02-28T13:26:52.952Z,99953.69
2023-02-28T13:29:29.481Z,99940.56
2023-02-28T13:32:09.203Z,99940.56
2023-02-28T13:34:43.291Z,99941.59
2023-02-28T13:37:22.483Z,99938.34
2023-02-28T13:39:50.262Z,99940.34
2023-02-28T13:42:23.094Z,99935.56
2023-02-28T13:45:02.475Z,99933.44
2023-02-28T13:47:29.985Z,99936.50
2023-02-28T13:50:26.529Z,99933.59
2023-02-28T13:53:12.005Z,99926.47
2023-02-28T13:56:08.717Z,99927.97
2023-02-28T13:58:56.442Z,99927.34
2023-02-28T14:01:40.147Z,99928.06
2023-02-28T14:04:28.610Z,99919.97
2023-02-28T14:06:55.943Z,99917.22
2023-02-28T14:09:31.740Z,99912.53
2023-02-28T14:11:59.106Z,99913.91
2023-02-28T14:14:38.126Z,99921.69
2023-02-28T14:17:10.655Z,99915.38
2023-02-28T14:19:38.119Z,99910.84
2023-02-28T14:22:43.566Z,99908.53
2023-02-28T14:25:28.711Z,99915.16
2023-02-28T14:28:12.203Z,99909.22
2023-02-28T14:30:51.751Z,99908.31
2023-02-28T14:33:31.014Z,99902.31
2023-02-28T14:36:05.730Z,99896.78
2023-02-28T14:38:47.508Z,99898.47
2023-02-28T14:41:23.481Z,99902.09
2023-02-28T14:43:52.702Z,99901.47
2023-02-28T14:46:20.283Z,99901.94
2023-02-28T14:48:48.627Z,99903.00
2023-02-28T14:51:19.402Z,99902.84
2023-02-28T14:53:46.539Z,99896.47
2023-02-28T14:56:24.851Z,99899.00
2023-02-28T14:58:56.055Z,99895.31
2023-02-28T15:01:23.633Z,99899.16
2023-02-28T15:03:58.639Z,99903.78
2023-02-28T15:06:26.811Z,99902.06
2023-02-28T15:09:18.003Z,99892.22
2023-02-28T15:11:47.480Z,99894.59
2023-02-28T15:14:20.424Z,99894.22
2023-02-28T15:16:50.691Z,99896.75
2023-02-28T15:19:26.081Z,99899.69
2023-02-28T15:22:01.374Z,99888.06
2023-02-28T15:24:32.785Z,99894.53
2023-02-28T15:27:01.189Z,99899.13
2023-02-28T15:29:29.711Z,99900.97
2023-02-28T15:32:03.643Z,99897.38
2023-02-28T15:34:45.881Z,99897.53
2023-02-28T15:37:32.120Z,99895.91
2023-02-28T15:40:32.878Z,99901.34
2023-02-28T15:43:16.742Z,99901.44
2023-02-28T15:45:54.269Z,99894.47
2023-02-28T15:48:22.555Z,99899.94
2023-02-28T15:50:58.115Z,99896.44
2023-02-28T15:53:33.612Z,99901.03
2023-02-28T15:56:06.355Z,99906.66
2023-02-28T15:58:33.779Z,99896.84
2023-02-28T16:01:02.671Z,99900.47
2023-02-28T16:03:45.427Z,99892.47
2023-02-28T16:06:35.586Z,99898.97
2023-02-28T16:09:02.691Z,99891.00
2023-02-28T16:11:30.292Z,99898.34
2023-02-28T16:13:57.316Z,99896.69
2023-02-28T16:16:25.390Z,99899.44
2023-02-28T16:18:52.340Z,99911.34
2023-02-28T16:21:19.458Z,99902.56
2023-02-28T16:23:46.269Z,99907.16
2023-02-28T16:26:19.850Z,99896.56
2023-02-28T16:28:46.690Z,99899.41
2023-02-28T16:31:17.440Z,99903.19
2023-02-28T16:33:45.754Z,99900.72
2023-02-28T16:36:17.745Z,99911.69
2023-02-28T16:38:44.653Z,99911.84
2023-02-28T16:41:17.598Z,99912.06
2023-02-28T16:43:44.961Z,99918.47
2023-02-28T16:46:13.779Z,99926.81
2023-02-28T16:48:41.560Z,99917.97
2023-02-28T16:51:17.711Z,99921.84
2023-02-28T16:53:44.901Z,99926.47
2023-02-28T16:56:22.638Z,99916.81
2023-02-28T16:58:49.682Z,99926.06
2023-02-28T17:01:17.272Z,99926.13
2023-02-28T17:03:44.149Z,99930.53
2023-02-28T17:06:20.314Z,99928.41
2023-02-28T17:08:47.364Z,99929.59
2023-02-28T17:11:14.524Z,99930.78
2023-02-28T17:13:41.305Z,99931.06
2023-02-28T17:16:30.818Z,99934.88
2023-02-28T17:18:59.752Z,99935.97
2023-02-28T17:21:26.857Z,99937.94
2023-02-28T17:23:53.650Z,99946.13
2023-02-28T17:26:21.056Z,99933.75
2023-02-28T17:28:49.011Z,99941.09
2023-02-28T17:31:16.223Z,99940.44
2023-02-28T17:33:43.118Z,99943.50
2023-02-28T17:36:17.368Z,99942.59
2023-02-28T17:38:44.228Z,99936.50
2023-02-28T17:41:11.966Z,99957.16
2023-02-28T17:43:38.733Z,99944.91
2023-02-28T17:46:06.494Z,99943.22
2023-02-28T17:48:34.162Z,99939.94
2023-02-28T17:51:01.266Z,99949.00
2023-02-28T17:53:28.251Z,99943.91
2023-02-28T17:55:55.338Z,99948.53
2023-02-28T17:58:22.187Z,99947.81
2023-02-28T18:00:54.678Z,99945.38
2023-02-28T18:03:21.891Z,99944.59
2023-02-28T18:05:49.165Z,99950.22
2023-02-28T18:08:15.986Z,99944.84
2023-02-28T18:10:43.146Z,99944.25
2023-02-28T18:13:13.497Z,99945.25
2023-02-28T18:15:40.762Z,99944.59
2023-02-28T18:18:07.734Z,99947.25
2023-02-28T18:20:35.470Z,99951.06
2023-02-28T18:23:02.378Z,99941.41
2023-02-28T18:25:29.646Z,99948.56
2023-02-28T18:27:59.335Z,99953.16
2023-02-28T18:30:31.484Z,99954.28
2023-02-28T18:32:59.119Z,99945.41
2023-02-28T18:35:35.396Z,99941.16
2023-02-28T18:38:15.010Z,99940.47
2023-02-28T18:40:42.469Z,99949.38
2023-02-28T18:43:09.585Z,99944.22
2023-02-28T18:45:38.552Z,99947.81
2023-02-28T18:48:05.855Z,99960.47
2023-02-28T18:50:32.954Z,99957.00
2023-02-28T18:52:59.878Z,99961.59
2023-02-28T18:55:27.903Z,99955.53
2023-02-28T18:57:54.747Z,99958.31
2023-02-28T19:00:22.729Z,99950.38
2023-02-28T19:02:50.623Z,99957.72
2023-02-28T19:05:18.524Z,99947.13
2023-02-28T19:07:46.012Z,99951.69
2023-02-28T19:10:13.565Z,99951.81
2023-02-28T19:12:42.346Z,99954.72
2023-02-28T19:15:09.827Z,99953.97
2023-02-28T19:17:36.850Z,99950.44
2023-02-28T19:20:04.999Z,99950.66
2023-02-28T19:22:32.025Z,99945.31
2023-02-28T19:24:59.230Z,99946.44
2023-02-28T19:27:26.044Z,99943.94
2023-02-28T19:29:53.301Z,99944.16
2023-02-28T19:32:20.490Z,99951.53
2023-02-28T19:34:47.892Z,99954.03
2023-02-28T19:37:14.733Z,99948.97
2023-02-28T19:39:45.305Z,99940.19
2023-02-28T19:42:14.027Z,99951.53
2023-02-28T19:44:41.389Z,99948.38
2023-02-28T19:47:08.333Z,99944.09
2023-02-28T19:49:35.449Z,99939.78
2023-02-28T19:52:02.973Z,99937.31
2023-02-28T19:54:30.452Z,99941.13
2023-02-28T19:56:58.474Z,99949.22
2023-02-28T19:59:31.324Z,99940.94
2023-02-28T20:02:05.723Z,99939.59
2023-02-28T20:04:32.877Z,99939.50
2023-02-28T20:06:59.731Z,99942.56
2023-02-28T20:09:31.003Z,99942.44
2023-02-28T20:11:59.500Z,99948.72
2023-02-28T20:14:26.816Z,99941.19
2023-02-28T20:16:54.337Z,99947.13
2023-02-28T20:19:22.624Z,99941.78
2023-02-28T20:21:49.418Z,99940.44
2023-02-28T20:24:16.761Z,99947.47
2023-02-28T20:26:43.666Z,99943.22
2023-02-28T20:29:11.810Z,99942.94
2023-02-28T20:31:38.722Z,99941.84
2023-02-28T20:34:05.916Z,99948.88
2023-02-28T20:36:33.041Z,99940.88
2023-02-28T20:39:00.610Z,99948.84
2023-02-28T20:41:27.463Z,99952.38
2023-02-28T20:43:55.768Z,99941.72
2023-02-28T20:46:22.728Z,99946.91
2023-02-28T20:48:49.904Z,99937.53
2023-02-28T20:51:16.845Z,99940.69
2023-02-28T20:53:43.933Z,99945.91
2023-02-28T20:56:13.742Z,99947.41
2023-02-28T20:58:40.957Z,99945.38
2023-02-28T21:01:18.553Z,99942.22
2023-02-28T21:03:49.454Z,99943.66
2023-02-28T21:06:20.296Z,99936.81
2023-02-28T21:08:47.454Z,99932.94
2023-02-28T21:11:19.037Z,99937.69
2023-02-28T21:13:46.612Z,99935.44
2023-02-28T21:16:15.055Z,99943.13
2023-02-28T21:18:42.305Z,99938.16
2023-02-28T21:21:17.005Z,99940.97
2023-02-28T21:23:46.600Z,99949.09
2023-02-28T21:26:15.440Z,99952.28
2023-02-28T21:28:44.274Z,99948.56
2023-02-28T21:31:13.406Z,99950.66
2023-02-28T21:33:40.706Z,99940.97
2023-02-28T21:36:10.039Z,99941.97
2023-02-28T21:38:37.918Z,99950.16
2023-02-28T21:41:09.329Z,99945.75
2023-02-28T21:43:36.413Z,99954.00
2023-02-28T21:46:08.081Z,99954.06
2023-02-28T21:48:35.250Z,99956.63
2023-02-28T21:51:06.648Z,99958.84
2023-02-28T21:53:35.891Z,99960.69
2023-02-28T21:56:16.596Z,99958.03
2023-02-28T21:58:43.709Z,99958.94
2023-02-28T22:01:12.264Z,99955.50
2023-02-28T22:03:39.380Z,99957.25
2023-02-28T22:06:26.424Z,99950.31
2023-02-28T22:08:56.418Z,99940.72
2023-02-28T22:11:23.746Z,99954.22
2023-02-28T22:13:56.163Z,99949.06
2023-02-28T22:16:23.858Z,99951.00
2023-02-28T22:18:50.940Z,99951.91
2023-02-28T22:21:18.145Z,99947.38
2023-02-28T22:23:45.550Z,99950.16
2023-02-28T22:26:13.942Z,99954.75
2023-02-28T22:28:41.140Z,99960.16
2023-02-28T22:31:18.141Z,99956.75
2023-02-28T22:33:45.475Z,99953.28
2023-02-28T22:36:13.659Z,99957.00
2023-02-28T22:38:41.799Z,99952.81
2023-02-28T22:41:08.670Z,99955.25
2023-02-28T22:43:35.852Z,99954.44
2023-02-28T22:46:04.027Z,99963.34
2023-02-28T22:48:31.300Z,99963.44
2023-02-28T22:51:05.427Z,99962.59
2023-02-28T22:53:33.614Z,99969.88
2023-02-28T22:56:00.363Z,99965.47
2023-02-28T22:58:27.572Z,99962.72
2023-02-28T23:00:57.911Z,99966.50
2023-02-28T23:03:25.594Z,99966.56
2023-02-28T23:05:52.798Z,99970.38
2023-02-28T23:08:23.344Z,99960.50
2023-02-28T23:10:50.753Z,99966.84
2023-02-28T23:13:18.707Z,99967.75
2023-02-28T23:15:45.993Z,99966.13
2023-02-28T23:18:13.262Z,99974.16
2023-02-28T23:20:40.225Z,99957.63
2023-02-28T23:23:07.335Z,99958.38
2023-02-28T23:25:34.134Z,99956.63
2023-02-28T23:28:01.203Z,99957.63
2023-02-28T23:30:27.994Z,99964.75
2023-02-28T23:32:55.344Z,99963.25
2023-02-28T23:35:22.645Z,99963.13
2023-02-28T23:37:49.837Z,99965.75
2023-02-28T23:40:16.975Z,99969.56
2023-02-28T23:42:44.930Z,99973.09
2023-02-28T23:45:11.726Z,99979.38
2023-02-28T23:47:38.801Z,99986.63
2023-02-28T23:50:05.989Z,99984.72
2023-02-28T23:52:33.101Z,99990.19
2023-02-28T23:55:00.923Z,99985.78
2023-02-28T23:57:29.724Z,99993.97
2023-02-28T23:59:56.650Z,99988.59
